sensor_id;sensor_type;location;lat;lon;timestamp;P1;durP1;ratioP1;P2;durP2;ratioP2
63346;SDS011;49472;49.880;8.650;2023-03-04T00:00:52;29.20;;;22.03;;
63346;SDS011;49472;49.880;8.650;2023-03-04T00:03:17;26.60;;;21.13;;
63346;SDS011;49472;49.880;8.650;2023-03-04T00:05:43;28.43;;;21.53;;
63346;SDS011;49472;49.880;8.650;2023-03-04T00:08:08;32.67;;;21.40;;
63346;SDS011;49472;49.880;8.650;2023-03-04T00:10:34;30.83;;;21.10;;
63346;SDS011;49472;49.880;8.650;2023-03-04T00:12:59;30.73;;;22.20;;
63346;SDS011;49472;49.880;8.650;2023-03-04T00:15:25;29.50;;;22.67;;
63346;SDS011;49472;49.880;8.650;2023-03-04T00:17:50;31.97;;;21.93;;
63346;SDS011;49472;49.880;8.650;2023-03-04T00:20:15;27.10;;;21.50;;
63346;SDS011;49472;49.880;8.650;2023-03-04T00:22:41;29.10;;;22.77;;
63346;SDS011;49472;49.880;8.650;2023-03-04T00:25:06;27.70;;;21.70;;
63346;SDS011;49472;49.880;8.650;2023-03-04T00:27:31;29.97;;;21.23;;
63346;SDS011;49472;49.880;8.650;2023-03-04T00:29:57;35.20;;;22.80;;
63346;SDS011;49472;49.880;8.650;2023-03-04T00:32:22;30.77;;;23.50;;
63346;SDS011;49472;49.880;8.650;2023-03-04T00:34:47;28.67;;;22.43;;
63346;SDS011;49472;49.880;8.650;2023-03-04T00:37:13;32.10;;;21.57;;
63346;SDS011;49472;49.880;8.650;2023-03-04T00:39:38;33.53;;;23.40;;
63346;SDS011;49472;49.880;8.650;2023-03-04T00:42:03;29.13;;;23.13;;
63346;SDS011;49472;49.880;8.650;2023-03-04T00:44:29;31.70;;;22.93;;
63346;SDS011;49472;49.880;8.650;2023-03-04T00:46:54;32.67;;;23.53;;
63346;SDS011;49472;49.880;8.650;2023-03-04T00:49:19;28.37;;;22.17;;
63346;SDS011;49472;49.880;8.650;2023-03-04T00:51:45;36.57;;;24.07;;
63346;SDS011;49472;49.880;8.650;2023-03-04T00:54:10;34.17;;;24.50;;
63346;SDS011;49472;49.880;8.650;2023-03-04T00:56:35;30.30;;;23.20;;
63346;SDS011;49472;49.880;8.650;2023-03-04T00:59:01;34.20;;;23.57;;
63346;SDS011;49472;49.880;8.650;2023-03-04T01:01:26;32.37;;;23.80;;
63346;SDS011;49472;49.880;8.650;2023-03-04T01:03:51;34.47;;;24.63;;
63346;SDS011;49472;49.880;8.650;2023-03-04T01:06:17;34.03;;;23.13;;
63346;SDS011;49472;49.880;8.650;2023-03-04T01:08:42;35.17;;;24.67;;
63346;SDS011;49472;49.880;8.650;2023-03-04T01:11:07;37.17;;;24.20;;
63346;SDS011;49472;49.880;8.650;2023-03-04T01:13:33;39.17;;;26.60;;
63346;SDS011;49472;49.880;8.650;2023-03-04T01:15:59;39.13;;;26.67;;
63346;SDS011;49472;49.880;8.650;2023-03-04T01:18:24;43.30;;;28.33;;
63346;SDS011;49472;49.880;8.650;2023-03-04T01:20:49;48.30;;;27.87;;
63346;SDS011;49472;49.880;8.650;2023-03-04T01:23:15;37.17;;;26.70;;
63346;SDS011;49472;49.880;8.650;2023-03-04T01:25:40;34.13;;;24.53;;
63346;SDS011;49472;49.880;8.650;2023-03-04T01:28:05;48.63;;;30.60;;
63346;SDS011;49472;49.880;8.650;2023-03-04T01:30:30;46.90;;;31.57;;
63346;SDS011;49472;49.880;8.650;2023-03-04T01:32:56;41.77;;;27.00;;
63346;SDS011;49472;49.880;8.650;2023-03-04T01:35:21;36.03;;;25.50;;
63346;SDS011;49472;49.880;8.650;2023-03-04T01:37:46;39.40;;;25.17;;
63346;SDS011;49472;49.880;8.650;2023-03-04T01:40:12;44.33;;;26.53;;
63346;SDS011;49472;49.880;8.650;2023-03-04T01:42:38;34.20;;;25.23;;
63346;SDS011;49472;49.880;8.650;2023-03-04T01:45:04;33.80;;;23.50;;
63346;SDS011;49472;49.880;8.650;2023-03-04T01:47:31;30.77;;;23.13;;
63346;SDS011;49472;49.880;8.650;2023-03-04T01:49:58;35.30;;;24.07;;
63346;SDS011;49472;49.880;8.650;2023-03-04T01:52:27;35.67;;;25.00;;
63346;SDS011;49472;49.880;8.650;2023-03-04T01:54:52;36.10;;;25.53;;
63346;SDS011;49472;49.880;8.650;2023-03-04T01:57:20;34.07;;;23.60;;
63346;SDS011;49472;49.880;8.650;2023-03-04T01:59:47;35.20;;;24.30;;
63346;SDS011;49472;49.880;8.650;2023-03-04T02:02:41;35.50;;;25.30;;
63346;SDS011;49472;49.880;8.650;2023-03-04T02:05:07;33.63;;;25.43;;
63346;SDS011;49472;49.880;8.650;2023-03-04T02:07:32;32.90;;;24.87;;
63346;SDS011;49472;49.880;8.650;2023-03-04T02:09:58;38.80;;;26.00;;
63346;SDS011;49472;49.880;8.650;2023-03-04T02:12:23;36.73;;;25.67;;
63346;SDS011;49472;49.880;8.650;2023-03-04T02:14:48;33.03;;;24.53;;
63346;SDS011;49472;49.880;8.650;2023-03-04T02:17:14;31.63;;;23.97;;
63346;SDS011;49472;49.880;8.650;2023-03-04T02:22:13;32.93;;;23.40;;
63346;SDS011;49472;49.880;8.650;2023-03-04T02:24:43;30.80;;;22.50;;
63346;SDS011;49472;49.880;8.650;2023-03-04T02:27:11;34.00;;;23.20;;
63346;SDS011;49472;49.880;8.650;2023-03-04T02:29:36;33.07;;;24.87;;
63346;SDS011;49472;49.880;8.650;2023-03-04T02:32:02;31.93;;;23.63;;
63346;SDS011;49472;49.880;8.650;2023-03-04T02:34:29;34.60;;;23.90;;
63346;SDS011;49472;49.880;8.650;2023-03-04T02:36:57;33.60;;;23.73;;
63346;SDS011;49472;49.880;8.650;2023-03-04T02:39:30;33.27;;;24.03;;
63346;SDS011;49472;49.880;8.650;2023-03-04T02:41:58;37.03;;;22.87;;
63346;SDS011;49472;49.880;8.650;2023-03-04T02:44:32;31.70;;;23.90;;
63346;SDS011;49472;49.880;8.650;2023-03-04T02:46:59;31.63;;;24.03;;
63346;SDS011;49472;49.880;8.650;2023-03-04T02:49:27;32.40;;;24.10;;
63346;SDS011;49472;49.880;8.650;2023-03-04T02:51:59;35.00;;;23.80;;
63346;SDS011;49472;49.880;8.650;2023-03-04T02:54:24;34.10;;;24.50;;
63346;SDS011;49472;49.880;8.650;2023-03-04T02:56:51;36.77;;;25.60;;
63346;SDS011;49472;49.880;8.650;2023-03-04T02:59:18;33.67;;;24.60;;
63346;SDS011;49472;49.880;8.650;2023-03-04T03:01:44;39.60;;;25.10;;
63346;SDS011;49472;49.880;8.650;2023-03-04T03:04:10;30.63;;;23.57;;
63346;SDS011;49472;49.880;8.650;2023-03-04T03:06:35;34.47;;;24.50;;
63346;SDS011;49472;49.880;8.650;2023-03-04T03:09:01;36.17;;;25.80;;
63346;SDS011;49472;49.880;8.650;2023-03-04T03:11:27;36.57;;;25.43;;
63346;SDS011;49472;49.880;8.650;2023-03-04T03:13:52;36.63;;;24.97;;
63346;SDS011;49472;49.880;8.650;2023-03-04T03:16:17;44.60;;;25.30;;
63346;SDS011;49472;49.880;8.650;2023-03-04T03:18:42;38.70;;;26.00;;
63346;SDS011;49472;49.880;8.650;2023-03-04T03:21:08;40.83;;;26.80;;
63346;SDS011;49472;49.880;8.650;2023-03-04T03:23:33;33.27;;;23.67;;
63346;SDS011;49472;49.880;8.650;2023-03-04T03:25:59;39.20;;;26.57;;
63346;SDS011;49472;49.880;8.650;2023-03-04T03:28:25;35.87;;;24.93;;
63346;SDS011;49472;49.880;8.650;2023-03-04T03:30:50;38.90;;;25.60;;
63346;SDS011;49472;49.880;8.650;2023-03-04T03:33:15;48.40;;;27.47;;
63346;SDS011;49472;49.880;8.650;2023-03-04T03:35:41;40.20;;;26.73;;
63346;SDS011;49472;49.880;8.650;2023-03-04T03:38:06;34.53;;;25.60;;
63346;SDS011;49472;49.880;8.650;2023-03-04T03:40:31;38.37;;;26.90;;
63346;SDS011;49472;49.880;8.650;2023-03-04T03:42:56;47.53;;;25.93;;
63346;SDS011;49472;49.880;8.650;2023-03-04T03:45:22;48.57;;;27.67;;
63346;SDS011;49472;49.880;8.650;2023-03-04T03:47:47;43.13;;;27.20;;
63346;SDS011;49472;49.880;8.650;2023-03-04T03:50:12;44.90;;;27.30;;
63346;SDS011;49472;49.880;8.650;2023-03-04T03:52:38;38.47;;;27.40;;
63346;SDS011;49472;49.880;8.650;2023-03-04T03:55:03;46.13;;;26.37;;
63346;SDS011;49472;49.880;8.650;2023-03-04T03:57:29;41.93;;;25.90;;
63346;SDS011;49472;49.880;8.650;2023-03-04T03:59:54;41.53;;;27.90;;
63346;SDS011;49472;49.880;8.650;2023-03-04T04:02:20;41.57;;;27.53;;
63346;SDS011;49472;49.880;8.650;2023-03-04T04:04:45;41.47;;;28.47;;
63346;SDS011;49472;49.880;8.650;2023-03-04T04:07:11;42.10;;;26.33;;
63346;SDS011;49472;49.880;8.650;2023-03-04T04:09:36;40.43;;;27.80;;
63346;SDS011;49472;49.880;8.650;2023-03-04T04:12:03;36.10;;;25.77;;
63346;SDS011;49472;49.880;8.650;2023-03-04T04:14:29;41.73;;;26.83;;
63346;SDS011;49472;49.880;8.650;2023-03-04T04:16:55;37.13;;;25.63;;
63346;SDS011;49472;49.880;8.650;2023-03-04T04:19:20;40.73;;;27.90;;
63346;SDS011;49472;49.880;8.650;2023-03-04T04:21:45;37.97;;;25.40;;
63346;SDS011;49472;49.880;8.650;2023-03-04T04:24:11;45.00;;;26.30;;
63346;SDS011;49472;49.880;8.650;2023-03-04T04:26:37;40.10;;;27.40;;
63346;SDS011;49472;49.880;8.650;2023-03-04T04:29:02;38.40;;;26.30;;
63346;SDS011;49472;49.880;8.650;2023-03-04T04:31:28;39.27;;;27.67;;
63346;SDS011;49472;49.880;8.650;2023-03-04T04:33:53;44.77;;;27.33;;
63346;SDS011;49472;49.880;8.650;2023-03-04T04:36:18;43.70;;;27.50;;
63346;SDS011;49472;49.880;8.650;2023-03-04T04:38:44;36.93;;;26.00;;
63346;SDS011;49472;49.880;8.650;2023-03-04T04:41:16;46.57;;;29.77;;
63346;SDS011;49472;49.880;8.650;2023-03-04T04:43:45;43.43;;;28.10;;
63346;SDS011;49472;49.880;8.650;2023-03-04T04:46:11;39.87;;;28.90;;
63346;SDS011;49472;49.880;8.650;2023-03-04T04:48:36;44.80;;;29.33;;
63346;SDS011;49472;49.880;8.650;2023-03-04T04:51:01;49.33;;;28.33;;
63346;SDS011;49472;49.880;8.650;2023-03-04T04:53:27;46.63;;;30.30;;
63346;SDS011;49472;49.880;8.650;2023-03-04T04:55:52;44.60;;;28.70;;
63346;SDS011;49472;49.880;8.650;2023-03-04T04:58:17;44.87;;;29.73;;
63346;SDS011;49472;49.880;8.650;2023-03-04T05:00:43;53.67;;;31.60;;
63346;SDS011;49472;49.880;8.650;2023-03-04T05:03:08;47.07;;;29.40;;
63346;SDS011;49472;49.880;8.650;2023-03-04T05:05:33;57.30;;;32.33;;
63346;SDS011;49472;49.880;8.650;2023-03-04T05:07:59;54.47;;;31.83;;
63346;SDS011;49472;49.880;8.650;2023-03-04T05:10:24;55.73;;;32.90;;
63346;SDS011;49472;49.880;8.650;2023-03-04T05:12:49;72.53;;;35.77;;
63346;SDS011;49472;49.880;8.650;2023-03-04T05:15:14;72.30;;;35.50;;
63346;SDS011;49472;49.880;8.650;2023-03-04T05:17:40;77.17;;;35.93;;
63346;SDS011;49472;49.880;8.650;2023-03-04T05:20:06;76.07;;;36.90;;
63346;SDS011;49472;49.880;8.650;2023-03-04T05:22:32;72.20;;;37.13;;
63346;SDS011;49472;49.880;8.650;2023-03-04T05:24:58;72.10;;;37.37;;
63346;SDS011;49472;49.880;8.650;2023-03-04T05:27:23;90.67;;;40.87;;
63346;SDS011;49472;49.880;8.650;2023-03-04T05:29:48;81.53;;;37.43;;
63346;SDS011;49472;49.880;8.650;2023-03-04T05:32:14;71.43;;;38.63;;
63346;SDS011;49472;49.880;8.650;2023-03-04T05:34:39;69.90;;;37.27;;
63346;SDS011;49472;49.880;8.650;2023-03-04T05:37:04;77.57;;;39.20;;
63346;SDS011;49472;49.880;8.650;2023-03-04T05:39:30;73.43;;;38.57;;
63346;SDS011;49472;49.880;8.650;2023-03-04T05:41:55;73.50;;;37.87;;
63346;SDS011;49472;49.880;8.650;2023-03-04T05:44:20;85.63;;;39.23;;
63346;SDS011;49472;49.880;8.650;2023-03-04T05:46:45;76.73;;;37.57;;
63346;SDS011;49472;49.880;8.650;2023-03-04T05:49:11;73.50;;;39.03;;
63346;SDS011;49472;49.880;8.650;2023-03-04T05:51:36;80.40;;;38.40;;
63346;SDS011;49472;49.880;8.650;2023-03-04T05:54:01;88.00;;;42.00;;
63346;SDS011;49472;49.880;8.650;2023-03-04T05:56:27;78.63;;;38.83;;
63346;SDS011;49472;49.880;8.650;2023-03-04T05:58:55;88.53;;;42.63;;
63346;SDS011;49472;49.880;8.650;2023-03-04T06:01:23;81.40;;;42.10;;
63346;SDS011;49472;49.880;8.650;2023-03-04T06:03:49;90.37;;;40.53;;
63346;SDS011;49472;49.880;8.650;2023-03-04T06:06:14;81.27;;;40.27;;
63346;SDS011;49472;49.880;8.650;2023-03-04T06:08:40;83.77;;;40.17;;
63346;SDS011;49472;49.880;8.650;2023-03-04T06:11:06;77.27;;;39.43;;
63346;SDS011;49472;49.880;8.650;2023-03-04T06:13:31;74.27;;;38.90;;
63346;SDS011;49472;49.880;8.650;2023-03-04T06:15:58;84.03;;;40.53;;
63346;SDS011;49472;49.880;8.650;2023-03-04T06:18:24;93.70;;;42.10;;
63346;SDS011;49472;49.880;8.650;2023-03-04T06:20:54;84.77;;;41.43;;
63346;SDS011;49472;49.880;8.650;2023-03-04T06:23:21;82.43;;;39.70;;
63346;SDS011;49472;49.880;8.650;2023-03-04T06:25:50;87.60;;;40.60;;
63346;SDS011;49472;49.880;8.650;2023-03-04T06:28:19;77.73;;;39.23;;
63346;SDS011;49472;49.880;8.650;2023-03-04T06:30:45;73.47;;;39.70;;
63346;SDS011;49472;49.880;8.650;2023-03-04T06:33:10;75.80;;;40.10;;
63346;SDS011;49472;49.880;8.650;2023-03-04T06:35:35;83.90;;;41.33;;
63346;SDS011;49472;49.880;8.650;2023-03-04T06:38:01;75.93;;;38.33;;
63346;SDS011;49472;49.880;8.650;2023-03-04T06:40:26;78.40;;;38.33;;
63346;SDS011;49472;49.880;8.650;2023-03-04T06:42:51;67.73;;;37.40;;
63346;SDS011;49472;49.880;8.650;2023-03-04T06:45:16;78.40;;;39.20;;
63346;SDS011;49472;49.880;8.650;2023-03-04T06:47:42;72.67;;;37.90;;
63346;SDS011;49472;49.880;8.650;2023-03-04T06:50:09;73.50;;;40.27;;
63346;SDS011;49472;49.880;8.650;2023-03-04T06:52:36;81.47;;;40.93;;
63346;SDS011;49472;49.880;8.650;2023-03-04T06:55:02;82.40;;;37.90;;
63346;SDS011;49472;49.880;8.650;2023-03-04T06:57:28;80.03;;;40.13;;
63346;SDS011;49472;49.880;8.650;2023-03-04T06:59:53;69.30;;;36.97;;
63346;SDS011;49472;49.880;8.650;2023-03-04T07:02:18;75.10;;;40.43;;
63346;SDS011;49472;49.880;8.650;2023-03-04T07:04:44;77.90;;;40.00;;
63346;SDS011;49472;49.880;8.650;2023-03-04T07:07:09;78.60;;;38.53;;
63346;SDS011;49472;49.880;8.650;2023-03-04T07:09:35;74.47;;;39.70;;
63346;SDS011;49472;49.880;8.650;2023-03-04T07:12:01;69.23;;;38.27;;
63346;SDS011;49472;49.880;8.650;2023-03-04T07:14:27;70.77;;;37.90;;
63346;SDS011;49472;49.880;8.650;2023-03-04T07:16:52;75.10;;;39.90;;
63346;SDS011;49472;49.880;8.650;2023-03-04T07:19:18;72.77;;;39.67;;
63346;SDS011;49472;49.880;8.650;2023-03-04T07:21:43;86.60;;;39.80;;
63346;SDS011;49472;49.880;8.650;2023-03-04T07:24:09;78.00;;;38.63;;
63346;SDS011;49472;49.880;8.650;2023-03-04T07:26:34;82.77;;;41.00;;
63346;SDS011;49472;49.880;8.650;2023-03-04T07:29:01;86.73;;;39.53;;
63346;SDS011;49472;49.880;8.650;2023-03-04T07:31:28;72.37;;;38.27;;
63346;SDS011;49472;49.880;8.650;2023-03-04T07:33:56;78.40;;;39.67;;
63346;SDS011;49472;49.880;8.650;2023-03-04T07:36:23;76.30;;;38.70;;
63346;SDS011;49472;49.880;8.650;2023-03-04T07:38:49;91.00;;;41.83;;
63346;SDS011;49472;49.880;8.650;2023-03-04T07:41:16;77.03;;;39.90;;
63346;SDS011;49472;49.880;8.650;2023-03-04T07:43:42;81.47;;;41.40;;
63346;SDS011;49472;49.880;8.650;2023-03-04T07:46:09;79.30;;;39.80;;
63346;SDS011;49472;49.880;8.650;2023-03-04T07:48:34;75.17;;;40.60;;
63346;SDS011;49472;49.880;8.650;2023-03-04T07:51:08;80.20;;;39.50;;
63346;SDS011;49472;49.880;8.650;2023-03-04T07:53:35;77.10;;;39.77;;
63346;SDS011;49472;49.880;8.650;2023-03-04T07:56:02;75.17;;;37.50;;
63346;SDS011;49472;49.880;8.650;2023-03-04T07:58:28;74.53;;;39.30;;
63346;SDS011;49472;49.880;8.650;2023-03-04T08:00:53;75.77;;;39.73;;
63346;SDS011;49472;49.880;8.650;2023-03-04T08:03:18;67.53;;;38.57;;
63346;SDS011;49472;49.880;8.650;2023-03-04T08:05:44;73.97;;;38.03;;
63346;SDS011;49472;49.880;8.650;2023-03-04T08:08:09;66.30;;;39.43;;
63346;SDS011;49472;49.880;8.650;2023-03-04T08:10:34;78.97;;;40.50;;
63346;SDS011;49472;49.880;8.650;2023-03-04T08:13:00;75.30;;;40.33;;
63346;SDS011;49472;49.880;8.650;2023-03-04T08:15:26;76.87;;;39.57;;
63346;SDS011;49472;49.880;8.650;2023-03-04T08:17:51;76.23;;;40.30;;
63346;SDS011;49472;49.880;8.650;2023-03-04T08:20:17;78.93;;;41.40;;
63346;SDS011;49472;49.880;8.650;2023-03-04T08:22:42;79.20;;;40.97;;
63346;SDS011;49472;49.880;8.650;2023-03-04T08:25:08;72.63;;;39.53;;
63346;SDS011;49472;49.880;8.650;2023-03-04T08:27:34;67.83;;;39.10;;
63346;SDS011;49472;49.880;8.650;2023-03-04T08:30:01;68.07;;;37.30;;
63346;SDS011;49472;49.880;8.650;2023-03-04T08:32:26;79.40;;;39.00;;
63346;SDS011;49472;49.880;8.650;2023-03-04T08:34:51;78.73;;;38.73;;
63346;SDS011;49472;49.880;8.650;2023-03-04T08:37:16;61.20;;;37.37;;
63346;SDS011;49472;49.880;8.650;2023-03-04T08:39:42;62.10;;;36.50;;
63346;SDS011;49472;49.880;8.650;2023-03-04T08:42:07;72.33;;;38.80;;
63346;SDS011;49472;49.880;8.650;2023-03-04T08:44:32;74.23;;;40.23;;
63346;SDS011;49472;49.880;8.650;2023-03-04T08:46:58;76.53;;;41.43;;
63346;SDS011;49472;49.880;8.650;2023-03-04T08:49:23;68.03;;;39.43;;
63346;SDS011;49472;49.880;8.650;2023-03-04T08:51:48;63.50;;;39.30;;
63346;SDS011;49472;49.880;8.650;2023-03-04T08:54:13;67.53;;;39.03;;
63346;SDS011;49472;49.880;8.650;2023-03-04T08:56:39;71.43;;;38.37;;
63346;SDS011;49472;49.880;8.650;2023-03-04T08:59:05;70.80;;;39.07;;
63346;SDS011;49472;49.880;8.650;2023-03-04T09:01:30;76.30;;;41.03;;
63346;SDS011;49472;49.880;8.650;2023-03-04T09:03:56;70.53;;;39.13;;
63346;SDS011;49472;49.880;8.650;2023-03-04T09:06:21;62.87;;;39.03;;
63346;SDS011;49472;49.880;8.650;2023-03-04T09:08:46;72.53;;;40.60;;
63346;SDS011;49472;49.880;8.650;2023-03-04T09:11:12;62.23;;;38.53;;
63346;SDS011;49472;49.880;8.650;2023-03-04T09:13:37;68.30;;;38.30;;
63346;SDS011;49472;49.880;8.650;2023-03-04T09:16:07;72.53;;;38.20;;
63346;SDS011;49472;49.880;8.650;2023-03-04T09:18:34;71.50;;;38.60;;
63346;SDS011;49472;49.880;8.650;2023-03-04T09:21:00;76.00;;;38.40;;
63346;SDS011;49472;49.880;8.650;2023-03-04T09:23:25;75.53;;;40.37;;
63346;SDS011;49472;49.880;8.650;2023-03-04T09:25:50;76.53;;;40.83;;
63346;SDS011;49472;49.880;8.650;2023-03-04T09:28:16;70.30;;;39.27;;
63346;SDS011;49472;49.880;8.650;2023-03-04T09:30:42;78.70;;;40.87;;
63346;SDS011;49472;49.880;8.650;2023-03-04T09:33:08;66.53;;;38.50;;
63346;SDS011;49472;49.880;8.650;2023-03-04T09:35:34;68.20;;;38.20;;
63346;SDS011;49472;49.880;8.650;2023-03-04T09:37:59;62.60;;;37.40;;
63346;SDS011;49472;49.880;8.650;2023-03-04T09:41:07;69.63;;;38.60;;
63346;SDS011;49472;49.880;8.650;2023-03-04T09:43:19;60.90;;;36.10;;
63346;SDS011;49472;49.880;8.650;2023-03-04T09:45:52;64.83;;;33.70;;
63346;SDS011;49472;49.880;8.650;2023-03-04T09:48:22;53.20;;;32.40;;
63346;SDS011;49472;49.880;8.650;2023-03-04T09:51:04;55.60;;;32.90;;
63346;SDS011;49472;49.880;8.650;2023-03-04T09:53:56;47.50;;;31.27;;
63346;SDS011;49472;49.880;8.650;2023-03-04T09:56:30;51.13;;;31.57;;
63346;SDS011;49472;49.880;8.650;2023-03-04T09:59:14;54.70;;;33.10;;
63346;SDS011;49472;49.880;8.650;2023-03-04T10:01:54;53.20;;;31.63;;
63346;SDS011;49472;49.880;8.650;2023-03-04T10:04:33;62.43;;;34.53;;
63346;SDS011;49472;49.880;8.650;2023-03-04T10:07:04;50.90;;;32.57;;
63346;SDS011;49472;49.880;8.650;2023-03-04T10:12:24;45.03;;;28.90;;
63346;SDS011;49472;49.880;8.650;2023-03-04T10:15:02;46.37;;;30.30;;
63346;SDS011;49472;49.880;8.650;2023-03-04T10:17:34;48.17;;;32.90;;
63346;SDS011;49472;49.880;8.650;2023-03-04T10:22:34;48.43;;;31.27;;
63346;SDS011;49472;49.880;8.650;2023-03-04T10:25:14;52.80;;;30.07;;
63346;SDS011;49472;49.880;8.650;2023-03-04T10:27:48;48.07;;;29.10;;
63346;SDS011;49472;49.880;8.650;2023-03-04T10:33:01;42.73;;;29.87;;
63346;SDS011;49472;49.880;8.650;2023-03-04T10:35:28;41.63;;;30.23;;
63346;SDS011;49472;49.880;8.650;2023-03-04T10:38:01;48.83;;;29.87;;
63346;SDS011;49472;49.880;8.650;2023-03-04T10:40:28;53.17;;;30.57;;
63346;SDS011;49472;49.880;8.650;2023-03-04T10:43:00;51.93;;;29.57;;
63346;SDS011;49472;49.880;8.650;2023-03-04T10:45:31;55.83;;;33.47;;
63346;SDS011;49472;49.880;8.650;2023-03-04T10:47:59;52.40;;;32.47;;
63346;SDS011;49472;49.880;8.650;2023-03-04T10:50:27;59.93;;;32.67;;
63346;SDS011;49472;49.880;8.650;2023-03-04T10:52:52;55.13;;;34.70;;
63346;SDS011;49472;49.880;8.650;2023-03-04T10:55:26;58.67;;;32.57;;
63346;SDS011;49472;49.880;8.650;2023-03-04T10:57:55;68.33;;;33.37;;
63346;SDS011;49472;49.880;8.650;2023-03-04T11:00:28;50.73;;;32.00;;
63346;SDS011;49472;49.880;8.650;2023-03-04T11:06:31;60.57;;;31.50;;
63346;SDS011;49472;49.880;8.650;2023-03-04T11:08:53;48.73;;;28.20;;
63346;SDS011;49472;49.880;8.650;2023-03-04T11:11:27;61.13;;;32.03;;
63346;SDS011;49472;49.880;8.650;2023-03-04T11:13:59;58.23;;;30.90;;
63346;SDS011;49472;49.880;8.650;2023-03-04T11:16:29;54.40;;;32.53;;
63346;SDS011;49472;49.880;8.650;2023-03-04T11:19:04;63.73;;;34.90;;
63346;SDS011;49472;49.880;8.650;2023-03-04T11:21:36;49.83;;;30.97;;
63346;SDS011;49472;49.880;8.650;2023-03-04T11:24:05;50.23;;;30.17;;
63346;SDS011;49472;49.880;8.650;2023-03-04T11:26:41;50.93;;;28.30;;
63346;SDS011;49472;49.880;8.650;2023-03-04T11:29:20;48.00;;;28.17;;
63346;SDS011;49472;49.880;8.650;2023-03-04T11:31:52;56.33;;;30.20;;
63346;SDS011;49472;49.880;8.650;2023-03-04T11:34:30;56.90;;;31.90;;
63346;SDS011;49472;49.880;8.650;2023-03-04T11:37:11;54.07;;;32.23;;
63346;SDS011;49472;49.880;8.650;2023-03-04T11:39:53;55.67;;;30.67;;
63346;SDS011;49472;49.880;8.650;2023-03-04T11:45:03;53.53;;;31.00;;
63346;SDS011;49472;49.880;8.650;2023-03-04T11:50:03;51.37;;;29.40;;
63346;SDS011;49472;49.880;8.650;2023-03-04T11:58:04;57.67;;;30.20;;
63346;SDS011;49472;49.880;8.650;2023-03-04T12:03:26;46.90;;;27.53;;
63346;SDS011;49472;49.880;8.650;2023-03-04T12:06:01;55.73;;;29.10;;
63346;SDS011;49472;49.880;8.650;2023-03-04T12:08:50;56.07;;;30.07;;
63346;SDS011;49472;49.880;8.650;2023-03-04T12:11:26;122.37;;;69.97;;
63346;SDS011;49472;49.880;8.650;2023-03-04T12:16:50;50.50;;;32.27;;
63346;SDS011;49472;49.880;8.650;2023-03-04T12:19:34;52.47;;;32.50;;
63346;SDS011;49472;49.880;8.650;2023-03-04T12:22:29;67.80;;;46.00;;
63346;SDS011;49472;49.880;8.650;2023-03-04T12:35:52;52.00;;;30.40;;
63346;SDS011;49472;49.880;8.650;2023-03-04T12:38:24;41.33;;;27.03;;
63346;SDS011;49472;49.880;8.650;2023-03-04T12:41:42;44.93;;;27.60;;
63346;SDS011;49472;49.880;8.650;2023-03-04T12:46:36;50.97;;;27.13;;
63346;SDS011;49472;49.880;8.650;2023-03-04T12:49:21;43.27;;;27.30;;
63346;SDS011;49472;49.880;8.650;2023-03-04T12:55:03;40.67;;;25.90;;
63346;SDS011;49472;49.880;8.650;2023-03-04T12:57:34;40.50;;;27.60;;
63346;SDS011;49472;49.880;8.650;2023-03-04T13:00:08;43.10;;;25.73;;
63346;SDS011;49472;49.880;8.650;2023-03-04T13:02:59;38.00;;;25.17;;
63346;SDS011;49472;49.880;8.650;2023-03-04T13:05:40;46.17;;;26.80;;
63346;SDS011;49472;49.880;8.650;2023-03-04T13:08:20;47.90;;;27.43;;
63346;SDS011;49472;49.880;8.650;2023-03-04T13:14:00;38.13;;;27.67;;
63346;SDS011;49472;49.880;8.650;2023-03-04T13:38:20;40.87;;;27.70;;
63346;SDS011;49472;49.880;8.650;2023-03-04T13:44:01;35.10;;;23.60;;
63346;SDS011;49472;49.880;8.650;2023-03-04T13:46:50;33.40;;;23.63;;
63346;SDS011;49472;49.880;8.650;2023-03-04T13:49:20;47.83;;;26.70;;
63346;SDS011;49472;49.880;8.650;2023-03-04T13:51:48;42.90;;;26.30;;
63346;SDS011;49472;49.880;8.650;2023-03-04T13:54:30;46.40;;;27.13;;
63346;SDS011;49472;49.880;8.650;2023-03-04T13:59:32;67.27;;;39.10;;
63346;SDS011;49472;49.880;8.650;2023-03-04T14:07:27;49.90;;;28.40;;
63346;SDS011;49472;49.880;8.650;2023-03-04T14:12:36;43.13;;;28.30;;
63346;SDS011;49472;49.880;8.650;2023-03-04T14:15:05;51.53;;;28.90;;
63346;SDS011;49472;49.880;8.650;2023-03-04T14:17:45;50.87;;;27.77;;
63346;SDS011;49472;49.880;8.650;2023-03-04T14:20:33;47.07;;;27.33;;
63346;SDS011;49472;49.880;8.650;2023-03-04T14:23:02;59.17;;;28.90;;
63346;SDS011;49472;49.880;8.650;2023-03-04T14:25:46;51.83;;;32.80;;
63346;SDS011;49472;49.880;8.650;2023-03-04T14:28:13;39.87;;;26.77;;
63346;SDS011;49472;49.880;8.650;2023-03-04T14:30:53;51.43;;;26.83;;
63346;SDS011;49472;49.880;8.650;2023-03-04T14:33:24;59.60;;;29.87;;
63346;SDS011;49472;49.880;8.650;2023-03-04T14:35:52;48.73;;;30.07;;
63346;SDS011;49472;49.880;8.650;2023-03-04T14:44:02;35.53;;;24.20;;
63346;SDS011;49472;49.880;8.650;2023-03-04T14:46:39;51.47;;;29.17;;
63346;SDS011;49472;49.880;8.650;2023-03-04T14:49:13;43.37;;;25.63;;
63346;SDS011;49472;49.880;8.650;2023-03-04T14:51:47;73.43;;;49.47;;
63346;SDS011;49472;49.880;8.650;2023-03-04T14:56:57;36.07;;;22.83;;
63346;SDS011;49472;49.880;8.650;2023-03-04T14:59:27;27.87;;;22.50;;
63346;SDS011;49472;49.880;8.650;2023-03-04T15:01:54;41.30;;;24.10;;
63346;SDS011;49472;49.880;8.650;2023-03-04T15:04:41;36.70;;;24.07;;
63346;SDS011;49472;49.880;8.650;2023-03-04T15:07:11;43.20;;;25.57;;
63346;SDS011;49472;49.880;8.650;2023-03-04T15:09:49;40.70;;;22.83;;
63346;SDS011;49472;49.880;8.650;2023-03-04T15:12:21;42.07;;;25.77;;
63346;SDS011;49472;49.880;8.650;2023-03-04T15:14:52;36.73;;;23.90;;
63346;SDS011;49472;49.880;8.650;2023-03-04T15:17:28;45.87;;;25.70;;
63346;SDS011;49472;49.880;8.650;2023-03-04T15:22:30;42.27;;;28.20;;
63346;SDS011;49472;49.880;8.650;2023-03-04T15:24:56;50.17;;;28.50;;
63346;SDS011;49472;49.880;8.650;2023-03-04T15:27:22;44.27;;;23.57;;
63346;SDS011;49472;49.880;8.650;2023-03-04T15:29:49;47.20;;;27.70;;
63346;SDS011;49472;49.880;8.650;2023-03-04T15:32:19;58.63;;;38.40;;
63346;SDS011;49472;49.880;8.650;2023-03-04T15:34:45;41.70;;;26.70;;
63346;SDS011;49472;49.880;8.650;2023-03-04T15:37:12;43.43;;;26.80;;
63346;SDS011;49472;49.880;8.650;2023-03-04T15:39:44;40.13;;;28.27;;
63346;SDS011;49472;49.880;8.650;2023-03-04T15:42:10;53.27;;;28.70;;
63346;SDS011;49472;49.880;8.650;2023-03-04T15:44:37;53.80;;;26.50;;
63346;SDS011;49472;49.880;8.650;2023-03-04T15:47:03;46.77;;;28.30;;
63346;SDS011;49472;49.880;8.650;2023-03-04T15:49:28;53.23;;;28.23;;
63346;SDS011;49472;49.880;8.650;2023-03-04T15:51:53;42.47;;;26.50;;
63346;SDS011;49472;49.880;8.650;2023-03-04T15:54:19;48.30;;;28.10;;
63346;SDS011;49472;49.880;8.650;2023-03-04T15:56:48;43.37;;;30.10;;
63346;SDS011;49472;49.880;8.650;2023-03-04T15:59:13;51.13;;;27.83;;
63346;SDS011;49472;49.880;8.650;2023-03-04T16:01:40;42.60;;;28.20;;
63346;SDS011;49472;49.880;8.650;2023-03-04T16:04:08;38.10;;;25.13;;